Time;durP1;ratioP1;P1;durP2;ratioP2;P2;SDS_P1;SDS_P2;PMS_P1;PMS_P2;Temp;Humidity;BMP_temperature;BMP_pressure;BME280_temperature;BME280_humidity;BME280_pressure;Samples;Min_cycle;Max_cycle;Signal;HPM_P1;HPM_P2
2022/07/23 00:00:14;;;;;;;11.20;10.10;;;;;;;26.08;68.32;98123.69;4109659;28;20645;-81
2022/07/23 00:02:17;;;;;;;10.47;9.47;;;;;;;26.09;67.53;98120.81;4126269;28;20678;-80
2022/07/23 00:04:20;;;;;;;10.60;9.60;;;;;;;26.13;67.26;98134.59;4111693;28;21258;-81
2022/07/23 00:06:24;;;;;;;10.10;9.30;;;;;;;26.15;67.52;98125.38;4126323;28;20667;-80
2022/07/23 00:08:28;;;;;;;10.50;9.40;;;;;;;26.17;66.97;98111.78;4125726;28;20634;-81
2022/07/23 00:10:31;;;;;;;9.50;8.60;;;;;;;26.17;65.97;98109.94;4129781;28;20650;-80
2022/07/23 00:12:37;;;;;;;9.23;8.00;;;;;;;26.19;65.32;98110.56;4124559;28;20638;-81
2022/07/23 00:14:54;;;;;;;8.33;7.63;;;;;;;26.22;64.53;98114.69;4107655;28;20642;-80
2022/07/23 00:16:57;;;;;;;8.50;7.60;;;;;;;26.22;63.51;98112.00;4124269;28;20637;-80
2022/07/23 00:19:01;;;;;;;8.30;7.50;;;;;;;26.23;63.52;98116.34;4111491;28;21235;-80
2022/07/23 00:21:05;;;;;;;8.10;7.40;;;;;;;26.22;63.33;98110.19;4126763;28;20628;-81
2022/07/23 00:23:08;;;;;;;7.83;7.03;;;;;;;26.26;63.07;98099.88;4112368;28;20748;-81
2022/07/23 00:25:12;;;;;;;8.20;7.50;;;;;;;26.26;63.05;98090.00;4130130;28;20645;-82
2022/07/23 00:27:33;;;;;;;7.57;6.93;;;;;;;26.25;63.24;98088.38;4113543;28;20670;-80
2022/07/23 00:29:36;;;;;;;8.37;7.57;;;;;;;26.26;63.14;98076.63;4125557;28;20673;-81
2022/07/23 00:31:39;;;;;;;7.63;6.90;;;;;;;26.28;63.48;98077.28;4126070;28;21054;-81
2022/07/23 00:33:42;;;;;;;8.10;7.40;;;;;;;26.30;63.30;98087.78;4116425;28;20639;-80
2022/07/23 00:35:45;;;;;;;10.00;7.17;;;;;;;26.30;62.96;98077.91;4093375;29;21320;-80
2022/07/23 00:37:49;;;;;;;8.00;7.30;;;;;;;26.29;63.31;98076.25;4124818;28;21296;-80
2022/07/23 00:39:52;;;;;;;10.27;7.23;;;;;;;26.28;63.01;98076.44;4129325;28;21044;-80
2022/07/23 00:41:56;;;;;;;8.33;7.53;;;;;;;26.26;63.22;98073.94;4128448;28;20646;-80
2022/07/23 00:44:17;;;;;;;7.70;7.00;;;;;;;26.23;63.52;98077.03;4109984;28;20640;-81
2022/07/23 00:46:21;;;;;;;8.10;7.30;;;;;;;26.23;63.44;98073.53;4124510;28;20636;-81
2022/07/23 00:48:24;;;;;;;7.57;6.87;;;;;;;26.22;63.55;98072.72;4110012;28;20658;-81
2022/07/23 00:50:27;;;;;;;7.47;6.67;;;;;;;26.22;63.68;98078.06;4125968;28;20639;-81
2022/07/23 00:52:30;;;;;;;8.87;7.40;;;;;;;26.25;63.38;98084.84;4123661;28;20632;-81
2022/07/23 00:54:34;;;;;;;8.13;7.33;;;;;;;26.23;63.47;98074.34;4107312;28;21213;-80
2022/07/23 00:56:38;;;;;;;8.60;7.70;;;;;;;26.22;63.82;98071.88;4112068;28;20643;-80
2022/07/23 00:58:45;;;;;;;7.63;6.93;;;;;;;26.18;63.99;98068.78;4108186;28;20680;-81
2022/07/23 01:00:48;;;;;;;8.70;7.83;;;;;;;26.17;64.30;98064.47;4110028;28;20636;-81
2022/07/23 01:02:51;;;;;;;7.80;7.20;;;;;;;26.16;63.78;98076.19;4126461;28;21203;-81
2022/07/23 01:04:55;;;;;;;8.20;7.40;;;;;;;26.12;64.42;98072.28;4126972;28;21240;-80
2022/07/23 01:06:58;;;;;;;8.10;7.40;;;;;;;26.10;64.35;98073.53;4125367;28;20671;-80
2022/07/23 01:09:02;;;;;;;7.83;7.13;;;;;;;26.07;64.94;98083.78;4131096;28;21518;-81
2022/07/23 01:11:06;;;;;;;9.30;7.07;;;;;;;26.02;65.05;98075.53;4109754;28;21436;-80
2022/07/23 01:13:11;;;;;;;7.60;6.57;;;;;;;25.99;65.07;98067.91;4106236;28;20696;-80
2022/07/23 01:15:15;;;;;;;7.60;6.73;;;;;;;26.01;65.16;98057.84;4122041;28;20687;-80
2022/07/23 01:17:19;;;;;;;7.30;6.50;;;;;;;26.02;65.55;98065.66;4110924;28;20688;-80
2022/07/23 01:19:22;;;;;;;7.40;6.63;;;;;;;26.01;64.90;98063.19;4124407;28;20644;-80
2022/07/23 01:21:26;;;;;;;7.83;6.40;;;;;;;25.96;64.71;98071.00;4125037;28;20695;-81
2022/07/23 01:23:30;;;;;;;6.73;6.13;;;;;;;25.91;64.56;98060.09;4108311;28;20668;-80
2022/07/23 01:25:35;;;;;;;7.00;6.40;;;;;;;25.92;64.89;98049.19;4124721;28;20741;-80
2022/07/23 01:27:39;;;;;;;7.20;6.17;;;;;;;25.90;64.37;98063.75;4126125;28;21252;-81
2022/07/23 01:29:43;;;;;;;7.30;6.60;;;;;;;25.87;65.03;98067.66;4109954;28;20643;-81
2022/07/23 01:31:51;;;;;;;6.80;6.27;;;;;;;25.81;65.16;98067.63;4122347;28;20690;-81
2022/07/23 01:33:54;;;;;;;7.00;6.33;;;;;;;25.76;65.35;98057.53;4119957;28;20737;-80
2022/07/23 01:35:57;;;;;;;7.07;6.40;;;;;;;25.77;65.04;98056.53;4106263;28;20632;-81
2022/07/23 01:38:01;;;;;;;6.80;6.20;;;;;;;25.80;64.97;98056.13;4125424;28;20656;-80
2022/07/23 01:40:07;;;;;;;7.40;6.33;;;;;;;25.81;65.07;98057.75;4111175;28;21017;-80
2022/07/23 01:42:10;;;;;;;7.13;6.53;;;;;;;25.81;65.17;98057.75;4108066;28;21045;-80
2022/07/23 01:44:15;;;;;;;7.37;6.67;;;;;;;25.82;66.02;98058.59;4130660;28;21033;-80
2022/07/23 01:46:19;;;;;;;6.60;6.00;;;;;;;25.82;64.81;98061.28;4125635;28;21429;-81
2022/07/23 01:48:24;;;;;;;7.07;6.33;;;;;;;25.82;65.42;98042.56;4127408;28;20752;-80
2022/07/23 01:50:48;;;;;;;7.17;6.27;;;;;;;25.80;65.47;98052.63;4108130;28;20664;-81
2022/07/23 01:53:01;;;;;;;7.00;6.30;;;;;;;25.76;66.87;98065.56;4108367;28;20637;-80
2022/07/23 01:55:07;;;;;;;6.77;6.17;;;;;;;25.68;66.26;98063.06;4113930;28;20655;-79
2022/07/23 01:57:11;;;;;;;6.90;6.30;;;;;;;25.57;65.84;98060.09;4109913;28;21132;-80
2022/07/23 01:59:15;;;;;;;7.37;6.70;;;;;;;25.52;66.63;98059.88;4128114;28;21004;-81
2022/07/23 02:01:18;;;;;;;8.63;7.40;;;;;;;25.46;66.59;98055.31;4124546;28;20642;-80
2022/07/23 02:03:21;;;;;;;7.13;6.43;;;;;;;25.43;66.33;98050.38;4127430;28;20637;-80
2022/07/23 02:05:24;;;;;;;7.80;6.13;;;;;;;25.43;66.25;98047.69;4106457;28;21302;-80
2022/07/23 02:07:27;;;;;;;6.70;6.10;;;;;;;25.46;67.10;98041.97;4110453;28;20656;-81
2022/07/23 02:09:35;;;;;;;7.53;6.70;;;;;;;25.47;67.27;98050.78;4111607;28;21211;-80
2022/07/23 02:11:40;;;;;;;7.73;6.07;;;;;;;25.43;67.24;98053.03;4106445;28;20648;-80
2022/07/23 02:13:43;;;;;;;6.37;5.77;;;;;;;25.38;68.60;98058.16;4108059;28;20648;-80
2022/07/23 02:15:46;;;;;;;6.93;6.20;;;;;;;25.26;68.57;98051.72;4118984;28;20627;-80
2022/07/23 02:17:49;;;;;;;6.80;6.20;;;;;;;25.13;68.13;98051.63;4125987;28;20651;-80
2022/07/23 02:19:52;;;;;;;6.83;6.23;;;;;;;25.06;67.84;98051.78;4110542;28;20728;-80
2022/07/23 02:21:57;;;;;;;6.40;5.80;;;;;;;25.03;68.37;98050.31;4112019;28;21203;-80
2022/07/23 02:24:00;;;;;;;6.43;5.80;;;;;;;25.08;68.64;98050.59;4092839;28;20722;-81
2022/07/23 02:26:04;;;;;;;7.40;6.00;;;;;;;25.11;69.16;98058.22;4123132;28;21249;-81
2022/07/23 02:28:08;;;;;;;6.87;6.27;;;;;;;25.12;69.41;98069.69;4106970;28;20686;-80
2022/07/23 02:30:12;;;;;;;7.10;6.50;;;;;;;25.10;69.33;98063.75;4125650;28;21220;-81
2022/07/23 02:32:15;;;;;;;6.83;6.23;;;;;;;25.06;68.47;98073.97;4109995;28;21205;-80
2022/07/23 02:34:19;;;;;;;7.30;6.23;;;;;;;25.06;69.70;98081.16;4124903;28;20631;-80
2022/07/23 02:36:23;;;;;;;6.33;5.70;;;;;;;25.04;68.90;98083.22;4123086;28;20633;-80
2022/07/23 02:38:28;;;;;;;6.37;5.77;;;;;;;25.03;68.11;98092.22;4123988;28;20677;-80
2022/07/23 02:40:31;;;;;;;8.07;6.87;;;;;;;25.00;68.60;98090.75;4120555;28;20649;-81
2022/07/23 02:42:35;;;;;;;7.10;6.50;;;;;;;25.02;67.71;98095.91;4123487;28;20634;-81
2022/07/23 02:44:40;;;;;;;6.73;5.77;;;;;;;24.99;68.83;98090.97;4124138;28;20645;-80
2022/07/23 02:46:43;;;;;;;6.90;6.20;;;;;;;24.92;69.73;98095.41;4106547;28;21168;-81
2022/07/23 02:48:47;;;;;;;7.40;6.60;;;;;;;24.88;70.26;98094.97;4108028;28;20648;-80
2022/07/23 02:50:52;;;;;;;6.83;6.23;;;;;;;24.86;69.62;98107.66;4110930;28;20633;-81
2022/07/23 02:53:01;;;;;;;6.70;6.10;;;;;;;24.84;68.91;98111.56;4108174;28;21187;-80
2022/07/23 02:55:06;;;;;;;6.47;5.87;;;;;;;24.81;69.72;98107.44;4126793;28;20640;-80
2022/07/23 02:57:10;;;;;;;8.57;6.30;;;;;;;24.74;70.17;98111.88;4124966;28;21055;-81
2022/07/23 02:59:13;;;;;;;6.67;6.03;;;;;;;24.67;70.28;98118.16;4124877;28;20629;-80
2022/07/23 03:01:17;;;;;;;6.53;6.03;;;;;;;24.59;72.35;98126.31;4109503;28;20646;-80
2022/07/23 03:03:23;;;;;;;7.20;6.50;;;;;;;24.53;70.96;98126.25;4112875;28;20635;-80
2022/07/23 03:05:33;;;;;;;7.50;6.10;;;;;;;24.49;71.27;98127.63;4128332;28;21202;-81
2022/07/23 03:07:36;;;;;;;7.53;6.83;;;;;;;24.44;71.35;98127.41;4124409;28;20768;-80
2022/07/23 03:09:40;;;;;;;7.20;6.50;;;;;;;24.39;71.55;98117.28;4109733;28;20692;-80
2022/07/23 03:11:45;;;;;;;6.90;6.20;;;;;;;24.40;71.19;98124.28;4129730;28;20629;-80
2022/07/23 03:13:49;;;;;;;7.23;6.47;;;;;;;24.38;71.74;98134.31;4107831;28;20643;-80
2022/07/23 03:15:52;;;;;;;8.00;6.60;;;;;;;24.33;71.50;98144.72;4093862;28;20644;-81
2022/07/23 03:17:56;;;;;;;7.80;7.10;;;;;;;24.26;70.68;98134.97;4111024;28;20640;-80
2022/07/23 03:19:59;;;;;;;6.97;6.37;;;;;;;24.23;70.47;98138.00;4128744;28;20656;-80
2022/07/23 03:22:02;;;;;;;6.93;6.33;;;;;;;24.18;71.37;98138.56;4110090;28;21222;-80
2022/07/23 03:24:06;;;;;;;7.83;6.60;;;;;;;24.16;71.92;98137.94;4108160;28;20641;-80
2022/07/23 03:26:09;;;;;;;7.20;6.50;;;;;;;24.15;71.21;98144.28;4113796;28;21339;-81
2022/07/23 03:28:12;;;;;;;8.10;7.27;;;;;;;24.15;72.01;98149.59;4108800;28;21354;-81
2022/07/23 03:30:15;;;;;;;8.43;7.53;;;;;;;24.13;71.64;98149.97;4106955;28;20631;-81
2022/07/23 03:32:18;;;;;;;7.80;7.00;;;;;;;24.11;71.79;98144.00;4112693;28;20624;-79
2022/07/23 03:34:23;;;;;;;8.03;7.30;;;;;;;24.07;71.97;98146.25;4113262;28;20746;-79
2022/07/23 03:36:26;;;;;;;7.17;6.50;;;;;;;24.01;72.18;98141.66;4125149;28;21250;-79
2022/07/23 03:38:31;;;;;;;7.57;6.43;;;;;;;23.97;72.10;98142.22;4124936;28;20645;-79
2022/07/23 03:40:35;;;;;;;7.60;6.80;;;;;;;23.93;72.04;98140.91;4113550;28;20642;-79
2022/07/23 03:42:41;;;;;;;7.10;6.40;;;;;;;23.90;72.21;98143.97;4109581;28;21559;-78
2022/07/23 03:44:44;;;;;;;7.07;6.37;;;;;;;23.87;72.51;98139.81;4106923;28;20648;-81
2022/07/23 03:46:47;;;;;;;7.67;6.50;;;;;;;23.83;72.00;98140.38;4107897;28;20735;-80
2022/07/23 03:48:51;;;;;;;7.37;6.50;;;;;;;23.82;72.57;98141.41;4129785;28;20861;-80
2022/07/23 03:51:02;;;;;;;9.93;7.03;;;;;;;23.78;72.61;98140.91;4106502;28;21252;-79
2022/07/23 03:53:05;;;;;;;7.13;6.47;;;;;;;23.76;72.94;98142.94;4128152;28;20680;-80
2022/07/23 03:55:10;;;;;;;8.40;6.40;;;;;;;23.77;73.04;98146.47;4112386;28;21034;-79
2022/07/23 03:57:13;;;;;;;7.77;6.53;;;;;;;23.76;72.77;98153.63;4126504;28;21223;-79
2022/07/23 03:59:17;;;;;;;7.80;7.10;;;;;;;23.78;73.20;98150.75;4124986;28;20627;-79
2022/07/23 04:01:25;;;;;;;7.53;6.77;;;;;;;23.80;73.83;98151.41;4107286;28;20629;-79
2022/07/23 04:03:29;;;;;;;7.70;6.90;;;;;;;23.77;72.86;98149.94;4127151;28;20671;-78
2022/07/23 04:05:32;;;;;;;7.97;7.23;;;;;;;23.78;72.91;98156.09;4124822;28;20682;-79
2022/07/23 04:07:42;;;;;;;7.80;7.00;;;;;;;23.78;72.79;98151.56;4107788;28;20688;-78
2022/07/23 04:09:46;;;;;;;8.10;7.40;;;;;;;23.80;72.98;98152.25;4114350;28;21037;-79
2022/07/23 04:11:49;;;;;;;11.53;7.63;;;;;;;23.83;73.32;98145.69;4111662;28;20646;-79
2022/07/23 04:13:52;;;;;;;7.97;7.20;;;;;;;23.82;72.21;98141.41;4121733;28;20642;-79
2022/07/23 04:15:56;;;;;;;7.87;7.07;;;;;;;23.83;72.39;98145.69;4108528;28;20639;-80
2022/07/23 04:17:59;;;;;;;7.90;7.10;;;;;;;23.82;71.60;98141.41;4111065;28;20716;-79
2022/07/23 04:20:12;;;;;;;7.60;6.80;;;;;;;23.83;73.26;98143.88;4122597;28;20672;-79
2022/07/23 04:22:22;;;;;;;7.73;6.93;;;;;;;23.86;73.00;98146.16;4104018;28;20670;-79
2022/07/23 04:24:27;;;;;;;8.23;7.00;;;;;;;23.87;72.43;98141.66;4109115;28;21876;-78
2022/07/23 04:26:30;;;;;;;7.93;7.00;;;;;;;23.89;73.08;98148.47;4111948;28;20643;-79
2022/07/23 04:28:33;;;;;;;7.63;6.93;;;;;;;23.91;74.52;98150.94;4111878;28;20695;-78
2022/07/23 04:30:37;;;;;;;7.60;6.90;;;;;;;23.90;74.80;98165.28;4108583;28;20678;-79
2022/07/23 04:32:42;;;;;;;7.83;7.03;;;;;;;23.92;74.67;98163.25;4122685;28;20646;-78
2022/07/23 04:34:54;;;;;;;7.77;7.10;;;;;;;23.93;73.53;98163.06;4106430;28;20627;-79
2022/07/23 04:36:57;;;;;;;7.90;7.10;;;;;;;23.94;73.19;98167.38;4108404;28;21220;-80
2022/07/23 04:39:01;;;;;;;9.17;7.93;;;;;;;23.95;72.99;98160.22;4124124;28;20718;-78
2022/07/23 04:41:06;;;;;;;8.50;7.70;;;;;;;23.97;73.92;98155.53;4128517;28;20749;-79
2022/07/23 04:43:09;;;;;;;7.90;7.20;;;;;;;23.96;75.32;98164.53;4130215;28;20630;-79
2022/07/23 04:45:19;;;;;;;7.90;7.10;;;;;;;23.95;74.90;98160.22;4110222;28;20686;-79
2022/07/23 04:47:24;;;;;;;9.27;7.10;;;;;;;23.93;76.92;98164.91;4105800;28;20709;-79
2022/07/23 04:49:31;;;;;;;10.00;8.40;;;;;;;23.87;76.82;98165.66;4108895;28;20812;-79
2022/07/23 04:51:34;;;;;;;8.83;7.93;;;;;;;23.85;76.96;98165.00;4109289;28;21275;-79
2022/07/23 04:53:38;;;;;;;9.20;8.23;;;;;;;23.86;76.25;98164.84;4128327;28;20641;-79
2022/07/23 04:55:41;;;;;;;9.33;7.67;;;;;;;23.89;75.72;98164.47;4111114;28;21031;-79
2022/07/23 04:57:46;;;;;;;7.83;7.03;;;;;;;23.91;74.21;98162.44;4110062;28;20690;-78
2022/07/23 04:59:49;;;;;;;8.43;7.63;;;;;;;23.91;74.21;98167.75;4109108;28;20686;-80
2022/07/23 05:01:52;;;;;;;8.30;7.50;;;;;;;23.92;74.73;98169.41;4111911;28;20627;-79
2022/07/23 05:03:55;;;;;;;8.70;7.67;;;;;;;23.95;76.80;98170.88;4096175;28;20639;-79
2022/07/23 05:06:02;;;;;;;8.47;7.53;;;;;;;23.93;77.98;98172.91;4109400;28;20695;-78
2022/07/23 05:08:06;;;;;;;9.53;7.80;;;;;;;23.92;77.56;98171.25;4107553;28;21209;-79
2022/07/23 05:10:12;;;;;;;8.13;7.17;;;;;;;23.93;77.35;98181.72;4105939;28;20666;-79
2022/07/23 05:12:16;;;;;;;8.93;7.90;;;;;;;23.96;78.25;98183.19;4122294;28;20673;-79
2022/07/23 05:14:20;;;;;;;9.03;8.13;;;;;;;24.01;76.82;98181.63;4106842;28;20649;-80
2022/07/23 05:16:25;;;;;;;8.90;7.63;;;;;;;24.04;75.93;98185.75;4125140;28;21023;-79
2022/07/23 05:18:32;;;;;;;8.50;7.60;;;;;;;24.09;77.42;98186.84;4106415;28;21439;-79
2022/07/23 05:20:35;;;;;;;7.97;7.27;;;;;;;24.15;76.48;98202.13;4109440;28;21187;-79
2022/07/23 05:22:38;;;;;;;8.83;7.97;;;;;;;24.20;77.11;98203.19;4124379;28;20631;-79
2022/07/23 05:24:42;;;;;;;8.63;7.83;;;;;;;24.32;75.91;98196.41;4125631;28;20750;-79
2022/07/23 05:26:47;;;;;;;8.27;7.50;;;;;;;24.42;75.75;98199.59;4125950;28;20741;-79
2022/07/23 05:28:51;;;;;;;9.03;7.30;;;;;;;24.50;75.95;98204.81;4107119;28;20638;-79
2022/07/23 05:30:56;;;;;;;8.70;7.90;;;;;;;24.56;75.84;98203.25;4118600;28;20654;-79
2022/07/23 05:33:00;;;;;;;7.77;7.00;;;;;;;24.61;76.52;98204.31;4123500;28;20664;-78
2022/07/23 05:35:04;;;;;;;7.90;7.20;;;;;;;24.65;76.45;98216.28;4105115;28;20724;-79
2022/07/23 05:37:07;;;;;;;8.13;7.37;;;;;;;24.69;74.80;98207.72;4108911;28;21019;-78
2022/07/23 05:39:11;;;;;;;8.50;7.47;;;;;;;24.79;74.83;98210.06;4106748;28;20645;-79
2022/07/23 05:41:14;;;;;;;7.70;7.00;;;;;;;24.93;75.18;98219.88;4106668;28;20643;-79
2022/07/23 05:43:17;;;;;;;7.87;7.17;;;;;;;25.07;74.08;98222.50;4125744;28;21396;-79
2022/07/23 05:45:20;;;;;;;8.23;6.87;;;;;;;25.25;73.75;98221.00;4108568;28;20734;-79
2022/07/23 05:47:25;;;;;;;7.47;6.63;;;;;;;25.50;73.24;98232.94;4127326;28;20638;-79
2022/07/23 05:49:28;;;;;;;8.57;7.30;;;;;;;25.61;73.37;98235.91;4123536;28;20640;-79
2022/07/23 05:51:51;;;;;;;7.83;7.03;;;;;;;25.64;72.40;98234.72;4108086;28;20761;-79
2022/07/23 05:54:04;;;;;;;8.07;7.23;;;;;;;25.61;73.84;98225.22;4106696;28;20652;-78
2022/07/23 05:56:11;;;;;;;8.43;7.63;;;;;;;25.54;74.09;98228.84;4109488;28;20628;-79
2022/07/23 05:58:14;;;;;;;8.47;7.70;;;;;;;25.50;73.98;98235.63;4124911;28;20642;-78
2022/07/23 06:00:17;;;;;;;8.33;7.53;;;;;;;25.47;74.49;98236.00;4105645;28;21217;-79
2022/07/23 06:02:22;;;;;;;8.27;7.47;;;;;;;25.49;73.94;98255.34;4121350;28;20646;-79
2022/07/23 06:04:29;;;;;;;8.07;7.37;;;;;;;25.52;73.63;98259.47;4109859;28;20743;-79
2022/07/23 06:06:49;;;;;;;8.60;7.80;;;;;;;25.55;73.66;98254.56;4121357;28;21039;-79
2022/07/23 06:08:52;;;;;;;8.67;7.77;;;;;;;25.56;73.36;98264.25;4109334;28;20640;-79
2022/07/23 06:10:56;;;;;;;8.63;7.73;;;;;;;25.57;73.50;98263.22;4106240;28;20749;-79
2022/07/23 06:12:59;;;;;;;9.10;8.20;;;;;;;25.57;74.03;98265.88;4110706;28;20637;-78
2022/07/23 06:15:07;;;;;;;9.10;8.30;;;;;;;25.58;74.00;98268.34;4107698;28;20638;-79
2022/07/23 06:17:13;;;;;;;9.20;8.30;;;;;;;25.59;73.92;98274.56;4091461;28;20661;-79
2022/07/23 06:19:16;;;;;;;10.20;7.83;;;;;;;25.54;73.54;98276.97;4122813;28;22483;-79
2022/07/23 06:21:22;;;;;;;9.60;8.30;;;;;;;25.48;72.87;98275.06;4123762;28;24836;-79
2022/07/23 06:23:46;;;;;;;8.80;8.00;;;;;;;25.41;73.67;98268.00;4105791;28;20644;-80
2022/07/23 06:25:49;;;;;;;9.10;8.20;;;;;;;25.35;72.50;98272.28;4105784;28;20680;-79
2022/07/23 06:27:53;;;;;;;9.90;8.10;;;;;;;25.31;73.85;98257.66;4104932;28;20658;-79
2022/07/23 06:29:56;;;;;;;8.80;7.90;;;;;;;25.28;73.73;98260.69;4109207;28;20710;-78
2022/07/23 06:31:59;;;;;;;9.53;8.30;;;;;;;25.28;73.71;98246.53;4111296;28;20679;-79
2022/07/23 06:34:02;;;;;;;9.03;8.23;;;;;;;25.31;72.72;98249.63;4130821;28;21315;-79
2022/07/23 06:36:05;;;;;;;9.03;8.23;;;;;;;25.28;72.95;98236.66;4127665;28;20642;-79
2022/07/23 06:38:10;;;;;;;9.47;8.67;;;;;;;25.33;72.81;98242.28;4126815;28;20709;-79
2022/07/23 06:40:13;;;;;;;9.00;8.10;;;;;;;25.39;72.34;98230.78;4110955;28;20632;-79
2022/07/23 06:42:16;;;;;;;9.87;8.80;;;;;;;25.47;72.04;98225.31;4109824;28;21222;-79
2022/07/23 06:44:21;;;;;;;10.60;9.70;;;;;;;25.68;71.33;98223.44;4126744;28;20986;-80
2022/07/23 06:46:25;;;;;;;10.53;9.47;;;;;;;25.80;69.96;98221.03;4125007;28;20673;-79
2022/07/23 06:48:28;;;;;;;10.40;9.37;;;;;;;25.95;71.31;98233.31;4110007;28;20629;-78
2022/07/23 06:50:32;;;;;;;11.00;10.00;;;;;;;25.98;71.57;98226.72;4108780;28;21261;-79
2022/07/23 06:52:35;;;;;;;10.90;9.80;;;;;;;25.94;70.60;98228.16;4125075;28;20637;-79
2022/07/23 06:54:49;;;;;;;10.07;9.17;;;;;;;25.95;71.38;98240.47;4111461;28;20616;-79
2022/07/23 06:56:52;;;;;;;9.87;9.00;;;;;;;25.97;71.10;98241.94;4111987;28;20664;-80
2022/07/23 06:58:55;;;;;;;11.17;10.07;;;;;;;26.14;70.55;98245.94;4128510;28;20627;-78
2022/07/23 07:00:58;;;;;;;10.60;9.70;;;;;;;26.25;70.43;98246.22;4128442;28;20627;-80
2022/07/23 07:03:01;;;;;;;13.07;10.13;;;;;;;26.32;69.13;98260.47;4112409;28;20683;-80
2022/07/23 07:05:05;;;;;;;12.40;10.60;;;;;;;26.44;68.70;98263.44;4112456;28;20791;-78
2022/07/23 07:07:09;;;;;;;10.70;9.70;;;;;;;26.49;69.18;98271.69;4125776;28;20742;-79
2022/07/23 07:09:16;;;;;;;10.73;9.73;;;;;;;26.55;69.36;98269.03;4110451;28;20632;-79
2022/07/23 07:11:25;;;;;;;16.50;9.57;;;;;;;26.59;70.42;98287.16;4111340;28;20646;-79
2022/07/23 07:13:28;;;;;;;11.63;10.53;;;;;;;26.53;70.82;98292.50;4107869;28;20634;-80
2022/07/23 07:15:31;;;;;;;11.30;10.30;;;;;;;26.44;70.41;98304.38;4113320;28;20649;-82
2022/07/23 07:17:36;;;;;;;11.83;10.73;;;;;;;26.29;70.19;98300.19;4110137;28;21105;-83
2022/07/23 07:19:39;;;;;;;14.00;11.27;;;;;;;26.11;70.60;98316.72;4111225;28;20647;-83
2022/07/23 07:21:42;;;;;;;11.77;10.57;;;;;;;25.99;71.15;98313.97;4110526;28;20629;-82
2022/07/23 07:23:48;;;;;;;12.70;10.40;;;;;;;25.89;71.79;98314.31;4097052;28;20672;-79
2022/07/23 07:25:57;;;;;;;12.33;11.13;;;;;;;25.80;72.52;98319.97;4127110;28;21065;-78
2022/07/23 07:28:05;;;;;;;11.93;10.73;;;;;;;25.68;72.47;98337.59;4111317;28;20664;-81
2022/07/23 07:30:12;;;;;;;12.97;11.10;;;;;;;25.58;72.57;98332.50;4125871;28;20717;-80
2022/07/23 07:32:16;;;;;;;11.50;10.50;;;;;;;25.44;73.17;98331.75;4125629;28;20655;-81
2022/07/23 07:34:52;;;;;;;11.63;10.53;;;;;;;25.37;73.56;98325.53;4093675;28;20630;-86
2022/07/23 07:37:24;;;;;;;11.77;10.57;;;;;;;25.32;75.37;98312.75;4105497;28;20731;-81
2022/07/23 07:39:28;;;;;;;12.10;10.90;;;;;;;25.31;75.52;98311.06;4124628;28;20693;-84
2022/07/23 07:41:32;;;;;;;13.00;11.70;;;;;;;25.24;74.60;98310.22;4093983;28;20652;-82
2022/07/23 07:43:37;;;;;;;12.20;10.33;;;;;;;25.17;75.70;98311.16;4109915;28;20647;-83
2022/07/23 07:45:41;;;;;;;12.53;11.33;;;;;;;25.03;75.71;98308.53;4111674;28;20649;-85
2022/07/23 07:47:44;;;;;;;11.63;10.53;;;;;;;24.95;76.45;98303.28;4129754;28;20693;-85
2022/07/23 07:49:48;;;;;;;12.10;10.90;;;;;;;24.94;76.67;98293.59;4111734;28;20639;-84
2022/07/23 07:51:52;;;;;;;12.23;10.93;;;;;;;24.94;77.29;98272.25;4109820;28;21280;-82
2022/07/23 07:53:56;;;;;;;11.83;10.70;;;;;;;24.88;76.85;98270.31;4129968;28;21023;-82
2022/07/23 07:56:01;;;;;;;12.20;10.37;;;;;;;24.89;77.13;98272.00;4109336;28;20739;-83
2022/07/23 07:58:05;;;;;;;11.90;10.70;;;;;;;24.96;78.17;98283.53;4112236;28;20649;-84
2022/07/23 08:00:11;;;;;;;11.90;10.73;;;;;;;25.00;78.47;98274.19;4093522;28;20641;-85
2022/07/23 08:02:15;;;;;;;12.13;10.80;;;;;;;25.08;80.06;98276.72;4093398;28;20736;-83
2022/07/23 08:04:19;;;;;;;15.60;11.40;;;;;;;25.18;79.35;98297.59;4106071;28;20771;-83
2022/07/23 08:06:23;;;;;;;12.00;10.90;;;;;;;25.30;80.05;98304.09;4110283;28;21193;-85
2022/07/23 08:08:26;;;;;;;8.47;7.77;;;;;;;25.24;73.58;98296.00;4129465;28;20749;-83
2022/07/23 08:10:31;;;;;;;8.90;8.10;;;;;;;25.24;73.29;98310.22;4112932;28;20985;-82
2022/07/23 08:12:45;;;;;;;9.63;8.70;;;;;;;25.31;74.40;98313.75;4112624;28;21042;-82
2022/07/23 08:14:49;;;;;;;10.10;9.20;;;;;;;25.45;74.83;98322.72;4113735;28;20639;-82
2022/07/23 08:16:54;;;;;;;10.10;9.20;;;;;;;25.60;74.15;98326.97;4114454;28;20631;-82
2022/07/23 08:19:16;;;;;;;10.10;9.10;;;;;;;25.70;74.57;98338.22;4129947;28;20631;-82
2022/07/23 08:21:20;;;;;;;10.20;9.30;;;;;;;25.69;75.26;98347.22;4096459;29;20644;-82
2022/07/23 08:23:24;;;;;;;11.43;8.70;;;;;;;25.61;74.65;98350.00;4124044;28;21345;-81
2022/07/23 08:25:34;;;;;;;10.87;9.90;;;;;;;25.56;76.30;98354.28;4110961;28;21212;-81
2022/07/23 08:27:37;;;;;;;10.13;9.13;;;;;;;25.42;74.82;98353.31;4109731;28;20658;-82
2022/07/23 08:29:41;;;;;;;9.33;8.43;;;;;;;25.31;75.79;98348.47;4111630;28;20657;-81
2022/07/23 08:31:45;;;;;;;10.33;9.03;;;;;;;25.23;74.87;98353.13;4112601;28;20665;-82
2022/07/23 08:33:52;;;;;;;10.13;8.40;;;;;;;25.19;74.29;98335.81;4115459;28;21257;-83
2022/07/23 08:35:56;;;;;;;9.93;8.93;;;;;;;25.16;75.19;98347.69;4131087;28;20644;-85
2022/07/23 08:38:01;;;;;;;10.50;9.40;;;;;;;25.08;75.68;98344.34;4130432;28;21202;-83
2022/07/23 08:40:06;;;;;;;13.97;12.73;;;;;;;25.04;77.13;98347.56;4130359;28;21105;-84
2022/07/23 08:42:09;;;;;;;13.60;10.93;;;;;;;25.00;77.81;98356.97;4109438;28;20644;-83
2022/07/23 08:44:13;;;;;;;11.83;10.67;;;;;;;24.94;78.48;98363.00;4107945;28;20658;-84
2022/07/23 08:46:18;;;;;;;13.20;11.33;;;;;;;24.88;78.44;98353.09;4111325;28;20651;-83
2022/07/23 08:48:23;;;;;;;12.23;11.03;;;;;;;24.81;78.90;98347.66;4125617;28;21271;-83
2022/07/23 08:50:29;;;;;;;11.20;10.20;;;;;;;24.78;78.83;98348.03;4122418;28;20685;-82
2022/07/23 08:52:32;;;;;;;11.77;10.57;;;;;;;24.75;78.95;98342.25;4102739;28;20668;-82
2022/07/23 08:54:38;;;;;;;13.50;12.10;;;;;;;24.82;78.60;98343.16;4094626;28;21181;-82
2022/07/23 08:56:43;;;;;;;12.13;11.00;;;;;;;24.88;79.45;98334.41;4108317;28;20706;-83
2022/07/23 08:58:49;;;;;;;11.00;10.00;;;;;;;24.93;77.58;98329.34;4110058;28;20982;-83
2022/07/23 09:00:53;;;;;;;12.23;10.57;;;;;;;25.05;77.81;98335.84;4106955;28;20640;-83
2022/07/23 09:02:56;;;;;;;11.40;10.30;;;;;;;25.12;76.59;98347.44;4108112;28;21102;-82
2022/07/23 09:05:00;;;;;;;11.10;10.10;;;;;;;25.23;77.78;98355.81;4113823;28;20631;-83
2022/07/23 09:07:04;;;;;;;10.87;9.77;;;;;;;25.38;77.23;98362.75;4093576;28;20761;-84
2022/07/23 09:09:17;;;;;;;11.17;10.07;;;;;;;25.76;75.98;98367.66;4107805;28;20643;-83
2022/07/23 09:11:20;;;;;;;10.93;9.83;;;;;;;26.22;76.74;98366.16;4108793;28;20660;-85
2022/07/23 09:13:25;;;;;;;11.53;10.43;;;;;;;26.39;73.55;98356.88;4110427;28;20659;-86
2022/07/23 09:15:29;;;;;;;10.20;9.30;;;;;;;26.53;72.72;98355.91;4107556;28;21245;-85
2022/07/23 09:17:38;;;;;;;10.80;9.77;;;;;;;26.79;72.33;98348.84;4125281;28;20674;-85
2022/07/23 09:19:42;;;;;;;10.70;9.60;;;;;;;27.24;71.21;98351.72;4112744;28;20725;-85
2022/07/23 09:21:46;;;;;;;11.87;10.60;;;;;;;27.60;69.54;98353.91;4107937;28;21080;-81
2022/07/23 09:23:53;;;;;;;10.80;9.80;;;;;;;27.76;69.67;98353.50;4128153;28;20646;-81
2022/07/23 09:25:56;;;;;;;10.17;9.27;;;;;;;27.72;70.26;98348.75;4112612;28;20759;-81
2022/07/23 09:28:02;;;;;;;10.23;9.33;;;;;;;27.80;68.36;98343.16;4110728;28;20767;-81
2022/07/23 09:30:07;;;;;;;10.00;9.10;;;;;;;27.95;69.48;98352.69;4126948;28;20640;-82
2022/07/23 09:32:14;;;;;;;11.10;10.10;;;;;;;28.27;67.65;98352.69;4107470;28;20633;-82
2022/07/23 09:34:20;;;;;;;10.63;8.90;;;;;;;28.55;68.48;98350.53;4126877;28;21003;-82
2022/07/23 09:36:29;;;;;;;9.87;8.97;;;;;;;28.66;66.41;98350.75;4124077;28;20794;-82
2022/07/23 09:38:32;;;;;;;9.80;8.50;;;;;;;28.75;65.49;98349.50;4124307;28;20649;-82
2022/07/23 09:40:44;;;;;;;9.20;8.50;;;;;;;28.73;65.96;98351.59;4108825;28;20635;-82
2022/07/23 09:42:55;;;;;;;10.00;9.03;;;;;;;28.40;66.09;98347.31;4124613;28;20623;-82
2022/07/23 09:44:59;;;;;;;8.50;7.70;;;;;;;28.26;67.09;98344.84;4125948;28;20639;-82